Terminal Aerodrome Forecast
Issued by NWS Tuscon, AZ

Home | Current Version | Previous Version | Text Only | Print | Product List | Glossary On
Versions: 1 2 3 4 5 6 7 8 9 10 11 12
333
FTUS45 KTWC 041140
TAFDUG
TAF
KDUG 041140Z 0412/0512 09013G21KT P6SM SKC
     FM042100 15010G18KT P6SM SCT100
     FM050300 08009KT P6SM FEW120
     FM051000 VRB03KT P6SM SKC=

USA.gov is the U.S. government's official web portal to all federal, state and local government web resources and services.